Time;durP1;ratioP1;P1;durP2;ratioP2;P2;SDS_P1;SDS_P2;PMS_P1;PMS_P2;Temp;Humidity;BMP_temperature;BMP_pressure;BME280_temperature;BME280_humidity;BME280_pressure;Samples;Min_cycle;Max_cycle;Signal;HPM_P1;HPM_P2
2022/06/23 00:00:50;;;;;;;0.05;0.05;;;;;;;;;;5013184;28;20091;-82
2022/06/23 00:03:21;;;;;;;0.10;0.10;;;;;;;;;;5015690;28;20025;-82
2022/06/23 00:05:49;;;;;;;0.10;0.10;;;;;;;;;;5016972;28;20037;-82
2022/06/23 00:08:16;;;;;;;0.10;0.10;;;;;;;;;;5016231;28;20053;-82
2022/06/23 00:10:45;;;;;;;0.10;0.10;;;;;;;;;;5018972;28;20030;-82
2022/06/23 00:13:15;;;;;;;0.10;0.10;;;;;;;;;;5015282;28;20022;-84
2022/06/23 00:15:43;;;;;;;0.10;0.10;;;;;;;;;;5020854;28;20481;-82
2022/06/23 00:18:20;;;;;;;0.10;0.10;;;;;;;;;;5015463;28;20418;-82
2022/06/23 00:20:56;;;;;;;0.10;0.10;;;;;;;;;;5016281;28;20068;-85
2022/06/23 00:23:22;;;;;;;0.10;0.10;;;;;;;;;;5016226;28;20068;-84
2022/06/23 00:25:48;;;;;;;0.10;0.10;;;;;;;;;;5021455;28;20494;-83
2022/06/23 00:28:27;;;;;;;0.10;0.10;;;;;;;;;;5024094;28;20041;-84
2022/06/23 00:31:04;;;;;;;0.10;0.10;;;;;;;;;;5019707;28;20030;-86
2022/06/23 00:33:38;;;;;;;0.10;0.10;;;;;;;;;;5022963;28;20048;-86
2022/06/23 00:36:14;;;;;;;0.10;0.10;;;;;;;;;;5017983;28;20034;-84
2022/06/23 00:38:40;;;;;;;0.10;0.10;;;;;;;;;;5022347;28;20025;-85
2022/06/23 00:41:15;;;;;;;0.10;0.10;;;;;;;;;;5023482;28;20035;-83
2022/06/23 00:43:43;;;;;;;0.10;0.10;;;;;;;;;;5016251;28;20121;-81
2022/06/23 00:46:15;;;;;;;0.10;0.10;;;;;;;;;;5018659;28;20124;-81
2022/06/23 00:48:44;;;;;;;0.03;0.03;;;;;;;;;;5018066;28;20033;-82
2022/06/23 00:51:09;;;;;;;0.10;0.10;;;;;;;;;;5024754;28;20044;-82
2022/06/23 00:53:39;;;;;;;0.10;0.10;;;;;;;;;;5018301;28;20018;-82
2022/06/23 00:56:16;;;;;;;0.10;0.10;;;;;;;;;;5025293;28;20030;-83
2022/06/23 00:58:54;;;;;;;0.10;0.10;;;;;;;;;;5023200;28;20030;-83
2022/06/23 01:01:53;;;;;;;0.10;0.10;;;;;;;;;;5016337;28;20499;-82
2022/06/23 01:04:39;;;;;;;0.10;0.10;;;;;;;;;;4981816;28;20045;-83
2022/06/23 01:07:17;;;;;;;0.10;0.10;;;;;;;;;;4984850;28;20046;-81
2022/06/23 01:09:49;;;;;;;0.10;0.10;;;;;;;;;;5017140;28;20105;-82
2022/06/23 01:12:19;;;;;;;0.10;0.10;;;;;;;;;;5020660;28;20493;-84
2022/06/23 01:15:05;;;;;;;0.10;0.10;;;;;;;;;;5025108;28;20096;-84
2022/06/23 01:17:38;;;;;;;0.10;0.10;;;;;;;;;;5021027;28;20087;-83
2022/06/23 01:20:20;;;;;;;0.10;0.10;;;;;;;;;;4999194;28;21938;-83
2022/06/23 01:22:50;;;;;;;0.10;0.10;;;;;;;;;;5017997;28;20025;-83
2022/06/23 01:25:34;;;;;;;0.10;0.10;;;;;;;;;;5018860;28;20532;-84
2022/06/23 01:28:19;;;;;;;0.00;0.00;;;;;;;;;;5017540;28;20112;-84
2022/06/23 01:30:55;;;;;;;0.10;0.10;;;;;;;;;;5022111;28;20092;-82
2022/06/23 01:33:26;;;;;;;0.10;0.10;;;;;;;;;;5018146;28;20052;-82
2022/06/23 01:35:52;;;;;;;0.10;0.10;;;;;;;;;;5014042;28;20030;-81
2022/06/23 01:38:22;;;;;;;0.10;0.10;;;;;;;;;;5018424;28;20039;-82
2022/06/23 01:40:48;;;;;;;0.10;0.10;;;;;;;;;;5019774;28;20029;-82
2022/06/23 01:43:29;;;;;;;0.10;0.10;;;;;;;;;;5017081;28;20020;-86
2022/06/23 01:46:01;;;;;;;0.10;0.10;;;;;;;;;;5012639;28;20449;-85
2022/06/23 01:51:22;;;;;;;0.10;0.10;;;;;;;;;;5016358;28;20033;-86
2022/06/23 01:53:49;;;;;;;0.10;0.10;;;;;;;;;;5013751;28;20076;-86
2022/06/23 01:56:18;;;;;;;0.00;0.00;;;;;;;;;;5018709;28;20501;-89
2022/06/23 01:58:50;;;;;;;0.10;0.10;;;;;;;;;;5016477;28;20165;-84
2022/06/23 02:01:20;;;;;;;0.10;0.10;;;;;;;;;;5015650;28;20037;-83
2022/06/23 02:03:47;;;;;;;0.10;0.10;;;;;;;;;;5016379;28;20029;-83
2022/06/23 02:06:22;;;;;;;0.08;0.08;;;;;;;;;;5020177;28;20049;-83
2022/06/23 02:08:51;;;;;;;0.10;0.10;;;;;;;;;;5020687;28;20404;-83
2022/06/23 02:11:36;;;;;;;0.10;0.10;;;;;;;;;;5017045;28;20163;-84
2022/06/23 02:14:34;;;;;;;0.10;0.10;;;;;;;;;;5016160;28;20028;-82
2022/06/23 02:17:11;;;;;;;0.10;0.10;;;;;;;;;;4964646;28;20046;-83
2022/06/23 02:19:46;;;;;;;0.10;0.10;;;;;;;;;;5016854;28;20024;-84
2022/06/23 02:22:14;;;;;;;0.10;0.10;;;;;;;;;;5019327;28;20029;-83
2022/06/23 02:24:40;;;;;;;0.10;0.10;;;;;;;;;;5019996;28;20045;-83
2022/06/23 02:27:12;;;;;;;0.10;0.10;;;;;;;;;;5018310;28;20072;-82
2022/06/23 02:29:57;;;;;;;0.10;0.10;;;;;;;;;;5018799;28;20087;-83
2022/06/23 02:32:26;;;;;;;0.10;0.10;;;;;;;;;;5018292;28;20520;-84
2022/06/23 02:34:55;;;;;;;0.10;0.10;;;;;;;;;;5019687;28;20359;-83
2022/06/23 02:37:40;;;;;;;0.10;0.10;;;;;;;;;;5021753;28;20037;-82
2022/06/23 02:40:13;;;;;;;0.10;0.10;;;;;;;;;;5016695;28;20088;-84
2022/06/23 02:42:39;;;;;;;0.10;0.10;;;;;;;;;;5018472;28;20527;-86
2022/06/23 02:45:17;;;;;;;0.10;0.10;;;;;;;;;;5016213;28;20498;-87
2022/06/23 02:47:49;;;;;;;0.10;0.10;;;;;;;;;;5016166;28;20021;-86
2022/06/23 02:50:36;;;;;;;0.10;0.10;;;;;;;;;;5017504;28;20097;-84
2022/06/23 02:53:05;;;;;;;0.10;0.10;;;;;;;;;;5017517;28;20030;-83
2022/06/23 02:55:43;;;;;;;0.10;0.10;;;;;;;;;;5016578;28;20113;-85
2022/06/23 02:58:17;;;;;;;0.10;0.10;;;;;;;;;;5020964;28;20025;-85
2022/06/23 03:01:04;;;;;;;0.10;0.10;;;;;;;;;;5017929;28;20044;-86
2022/06/23 03:03:34;;;;;;;0.10;0.10;;;;;;;;;;5018424;28;20188;-87
2022/06/23 03:06:16;;;;;;;0.10;0.10;;;;;;;;;;5012404;28;20034;-87
2022/06/23 03:08:48;;;;;;;0.10;0.10;;;;;;;;;;5016739;28;20037;-85
2022/06/23 03:11:15;;;;;;;0.10;0.10;;;;;;;;;;5018694;28;20060;-83
2022/06/23 03:13:44;;;;;;;0.10;0.10;;;;;;;;;;5022865;28;20223;-84
2022/06/23 03:16:10;;;;;;;0.10;0.10;;;;;;;;;;5030802;28;20040;-84
2022/06/23 03:18:48;;;;;;;0.10;0.10;;;;;;;;;;5018035;28;20030;-84
2022/06/23 03:21:22;;;;;;;0.10;0.10;;;;;;;;;;5015152;28;20029;-87
2022/06/23 03:23:51;;;;;;;0.10;0.10;;;;;;;;;;4998296;28;20044;-86
2022/06/23 03:26:20;;;;;;;0.10;0.10;;;;;;;;;;5016209;28;20481;-87
2022/06/23 03:28:53;;;;;;;0.10;0.10;;;;;;;;;;5015568;28;20038;-86
2022/06/23 03:31:36;;;;;;;0.10;0.10;;;;;;;;;;5017114;28;20022;-87
2022/06/23 03:34:25;;;;;;;0.10;0.10;;;;;;;;;;5013053;28;20083;-82
2022/06/23 03:36:58;;;;;;;0.10;0.10;;;;;;;;;;5004894;28;20765;-88
2022/06/23 03:42:25;;;;;;;0.10;0.10;;;;;;;;;;5015213;28;20601;-84
2022/06/23 03:44:51;;;;;;;0.00;0.00;;;;;;;;;;5015152;28;20029;-87
2022/06/23 03:47:35;;;;;;;0.10;0.10;;;;;;;;;;5019113;28;20045;-86
2022/06/23 03:50:18;;;;;;;0.10;0.10;;;;;;;;;;5020582;28;20079;-87
2022/06/23 03:52:47;;;;;;;0.00;0.00;;;;;;;;;;5010086;28;20042;-86
2022/06/23 03:55:16;;;;;;;0.10;0.10;;;;;;;;;;5020669;28;20034;-86
2022/06/23 03:58:02;;;;;;;0.10;0.10;;;;;;;;;;5018132;28;20021;-86
2022/06/23 04:00:31;;;;;;;0.10;0.10;;;;;;;;;;5013552;28;20048;-86
2022/06/23 04:03:09;;;;;;;0.00;0.00;;;;;;;;;;5013009;28;20026;-88
2022/06/23 04:05:54;;;;;;;0.10;0.10;;;;;;;;;;5013310;28;20579;-86
2022/06/23 04:08:19;;;;;;;0.13;0.13;;;;;;;;;;5017616;28;20152;-87
2022/06/23 04:10:46;;;;;;;0.10;0.10;;;;;;;;;;5001504;28;20120;-82
2022/06/23 04:13:31;;;;;;;0.10;0.10;;;;;;;;;;5013624;28;20032;-84
2022/06/23 04:16:04;;;;;;;0.10;0.10;;;;;;;;;;5012658;28;20026;-82
2022/06/23 04:18:31;;;;;;;0.10;0.10;;;;;;;;;;5014646;28;20512;-83
2022/06/23 04:21:20;;;;;;;0.10;0.10;;;;;;;;;;5012611;28;20469;-82
2022/06/23 04:23:50;;;;;;;0.10;0.10;;;;;;;;;;4985663;28;20050;-83
2022/06/23 04:26:23;;;;;;;0.10;0.10;;;;;;;;;;5018009;28;20165;-83
2022/06/23 04:28:51;;;;;;;0.10;0.10;;;;;;;;;;5013229;28;20030;-82
2022/06/23 04:31:19;;;;;;;0.10;0.10;;;;;;;;;;5012917;28;20092;-85
2022/06/23 04:33:47;;;;;;;0.10;0.10;;;;;;;;;;5015518;28;20029;-88
2022/06/23 04:36:20;;;;;;;0.10;0.10;;;;;;;;;;5018912;28;20030;-88
2022/06/23 04:38:56;;;;;;;0.00;0.00;;;;;;;;;;4998821;28;20030;-86
2022/06/23 04:41:28;;;;;;;0.10;0.10;;;;;;;;;;5013837;28;20439;-83
2022/06/23 04:43:54;;;;;;;0.10;0.10;;;;;;;;;;5015828;28;20033;-84
2022/06/23 04:46:36;;;;;;;0.10;0.10;;;;;;;;;;5015331;28;20386;-83
2022/06/23 04:49:09;;;;;;;0.00;0.00;;;;;;;;;;5017380;28;20045;-84
2022/06/23 04:51:38;;;;;;;0.10;0.10;;;;;;;;;;5019671;28;20028;-84
2022/06/23 04:54:10;;;;;;;0.10;0.10;;;;;;;;;;5018813;28;20022;-84
2022/06/23 04:56:42;;;;;;;0.10;0.10;;;;;;;;;;5020096;28;20049;-87
2022/06/23 04:59:27;;;;;;;0.10;0.10;;;;;;;;;;5017010;28;20076;-82
2022/06/23 05:01:54;;;;;;;0.10;0.10;;;;;;;;;;5018725;28;20525;-82
2022/06/23 05:04:38;;;;;;;0.10;0.10;;;;;;;;;;5023747;28;20029;-86
2022/06/23 05:07:06;;;;;;;0.10;0.10;;;;;;;;;;5024142;28;20396;-86
2022/06/23 05:09:35;;;;;;;0.10;0.10;;;;;;;;;;5028834;28;20029;-83
2022/06/23 05:12:02;;;;;;;0.10;0.10;;;;;;;;;;5017932;28;20021;-89
2022/06/23 05:14:29;;;;;;;0.10;0.10;;;;;;;;;;5034935;28;20026;-88
2022/06/23 05:16:56;;;;;;;0.10;0.10;;;;;;;;;;5024239;28;20121;-88
2022/06/23 05:19:26;;;;;;;0.10;0.10;;;;;;;;;;5021614;28;20099;-87
2022/06/23 05:22:01;;;;;;;0.10;0.10;;;;;;;;;;5029354;28;20034;-85
2022/06/23 05:24:34;;;;;;;0.10;0.10;;;;;;;;;;5023613;28;20029;-85
2022/06/23 05:27:02;;;;;;;0.10;0.10;;;;;;;;;;5034504;28;20113;-85
2022/06/23 05:29:33;;;;;;;0.10;0.10;;;;;;;;;;5034301;28;20393;-83
2022/06/23 05:32:05;;;;;;;0.10;0.10;;;;;;;;;;5034216;28;20029;-80
2022/06/23 05:34:33;;;;;;;0.10;0.10;;;;;;;;;;5034153;28;20440;-79
2022/06/23 05:37:01;;;;;;;0.10;0.10;;;;;;;;;;5034064;28;20040;-80
2022/06/23 05:39:37;;;;;;;0.10;0.10;;;;;;;;;;5032084;28;20022;-81
2022/06/23 05:42:09;;;;;;;0.10;0.10;;;;;;;;;;5033785;28;20029;-80
2022/06/23 05:44:50;;;;;;;0.10;0.10;;;;;;;;;;5033291;28;20413;-81
2022/06/23 05:47:17;;;;;;;0.10;0.10;;;;;;;;;;5033568;28;20053;-81
2022/06/23 05:49:47;;;;;;;0.10;0.10;;;;;;;;;;5033278;28;20104;-82
2022/06/23 05:52:18;;;;;;;0.10;0.10;;;;;;;;;;5033352;28;20397;-83
2022/06/23 05:54:53;;;;;;;0.10;0.10;;;;;;;;;;5017282;28;20555;-84
2022/06/23 05:57:26;;;;;;;0.10;0.10;;;;;;;;;;5012938;28;20037;-83
2022/06/23 06:00:11;;;;;;;0.10;0.10;;;;;;;;;;5015038;28;20386;-82
2022/06/23 06:02:40;;;;;;;0.10;0.10;;;;;;;;;;5029940;28;20039;-81
2022/06/23 06:05:08;;;;;;;0.10;0.10;;;;;;;;;;5033448;28;20037;-85
2022/06/23 06:07:37;;;;;;;0.10;0.10;;;;;;;;;;5015000;28;20060;-86
2022/06/23 06:10:05;;;;;;;0.00;0.00;;;;;;;;;;5031902;28;20048;-86
2022/06/23 06:12:37;;;;;;;0.10;0.10;;;;;;;;;;5032708;28;20063;-87
2022/06/23 06:15:15;;;;;;;0.10;0.10;;;;;;;;;;5032689;28;20041;-86
2022/06/23 06:17:41;;;;;;;0.10;0.10;;;;;;;;;;5015270;28;20385;-87
2022/06/23 06:20:08;;;;;;;0.10;0.10;;;;;;;;;;5016951;28;20402;-86
2022/06/23 06:22:47;;;;;;;0.10;0.10;;;;;;;;;;5028540;28;20030;-86
2022/06/23 06:25:22;;;;;;;0.10;0.10;;;;;;;;;;5013243;28;20042;-86
2022/06/23 06:27:48;;;;;;;0.10;0.10;;;;;;;;;;5012855;28;20025;-86
2022/06/23 06:30:16;;;;;;;0.10;0.10;;;;;;;;;;5028285;28;20030;-86
2022/06/23 06:32:44;;;;;;;0.10;0.10;;;;;;;;;;5012885;28;20061;-86
2022/06/23 06:35:17;;;;;;;0.10;0.10;;;;;;;;;;5028339;28;20025;-86
2022/06/23 06:37:47;;;;;;;0.10;0.10;;;;;;;;;;5012924;28;20029;-86
2022/06/23 06:40:14;;;;;;;0.10;0.10;;;;;;;;;;5023580;28;20100;-86
2022/06/23 06:42:42;;;;;;;0.10;0.10;;;;;;;;;;5014994;28;20100;-86
2022/06/23 06:45:11;;;;;;;0.10;0.10;;;;;;;;;;5031056;28;20051;-86
2022/06/23 06:47:38;;;;;;;0.10;0.10;;;;;;;;;;5028871;28;20037;-87
2022/06/23 06:50:09;;;;;;;0.03;0.03;;;;;;;;;;5046741;28;20028;-86
2022/06/23 06:52:35;;;;;;;0.10;0.10;;;;;;;;;;5037656;28;20032;-84
2022/06/23 06:55:05;;;;;;;0.10;0.10;;;;;;;;;;5032356;28;20053;-85
2022/06/23 06:57:33;;;;;;;0.10;0.10;;;;;;;;;;5032534;28;20061;-87
2022/06/23 07:00:05;;;;;;;0.10;0.10;;;;;;;;;;5032265;28;20096;-83
2022/06/23 07:02:34;;;;;;;0.10;0.10;;;;;;;;;;5032541;28;20033;-84
2022/06/23 07:05:15;;;;;;;0.10;0.10;;;;;;;;;;5032102;28;20498;-84
2022/06/23 07:07:42;;;;;;;0.05;0.05;;;;;;;;;;5019193;28;20034;-84
2022/06/23 07:10:17;;;;;;;0.10;0.10;;;;;;;;;;5012262;28;20018;-84
2022/06/23 07:12:48;;;;;;;0.10;0.10;;;;;;;;;;5012618;28;20061;-84
2022/06/23 07:15:23;;;;;;;0.00;0.00;;;;;;;;;;5018251;28;20084;-84
2022/06/23 07:18:04;;;;;;;0.10;0.10;;;;;;;;;;5027175;28;20030;-84
2022/06/23 07:20:30;;;;;;;0.10;0.10;;;;;;;;;;5011985;28;20044;-84
2022/06/23 07:23:06;;;;;;;0.10;0.10;;;;;;;;;;5001666;28;20080;-85
2022/06/23 07:25:32;;;;;;;;;;;;;;;;;;5012603;28;20433;-84
2022/06/23 07:27:58;;;;;;;;;;;;;;;;;;5025915;28;19959;-86
2022/06/23 07:30:26;;;;;;;0.00;0.00;;;;;;;;;;5023494;28;19964;-86
2022/06/23 07:32:59;;;;;;;0.10;0.10;;;;;;;;;;5011938;28;20041;-87
2022/06/23 07:35:29;;;;;;;0.05;0.05;;;;;;;;;;4997198;28;20574;-86
2022/06/23 07:37:58;;;;;;;0.00;0.00;;;;;;;;;;5017779;28;20021;-85
2022/06/23 07:40:25;;;;;;;0.10;0.10;;;;;;;;;;5011906;28;20058;-85
2022/06/23 07:43:30;;;;;;;0.10;0.10;;;;;;;;;;5026543;28;20070;-86
2022/06/23 07:45:57;;;;;;;0.10;0.10;;;;;;;;;;4941572;28;20036;-88
2022/06/23 07:48:24;;;;;;;0.10;0.10;;;;;;;;;;4939664;29;20046;-87
2022/06/23 07:50:50;;;;;;;0.10;0.10;;;;;;;;;;4990062;28;20504;-86
2022/06/23 07:53:18;;;;;;;0.10;0.10;;;;;;;;;;5031782;28;20025;-87
2022/06/23 07:55:46;;;;;;;0.10;0.10;;;;;;;;;;5010220;28;20022;-87
2022/06/23 07:58:14;;;;;;;0.10;0.10;;;;;;;;;;5014267;28;20033;-87
2022/06/23 08:00:41;;;;;;;0.10;0.10;;;;;;;;;;5031478;28;20026;-84
2022/06/23 08:03:13;;;;;;;0.10;0.10;;;;;;;;;;5025784;28;20026;-84
2022/06/23 08:05:41;;;;;;;0.10;0.10;;;;;;;;;;5026462;28;20153;-84
2022/06/23 08:08:12;;;;;;;0.10;0.10;;;;;;;;;;5012093;28;20149;-84
2022/06/23 08:10:38;;;;;;;0.10;0.10;;;;;;;;;;5019529;28;20026;-86
2022/06/23 08:13:06;;;;;;;0.10;0.10;;;;;;;;;;5012514;28;20032;-86
2022/06/23 08:18:50;;;;;;;0.10;0.10;;;;;;;;;;5031403;28;20079;-84
2022/06/23 08:21:19;;;;;;;0.10;0.10;;;;;;;;;;5024510;28;20029;-85
2022/06/23 08:24:06;;;;;;;0.10;0.10;;;;;;;;;;5012176;28;20474;-86
2022/06/23 08:26:33;;;;;;;0.10;0.10;;;;;;;;;;5012396;28;20045;-86
2022/06/23 08:29:01;;;;;;;0.10;0.10;;;;;;;;;;5025018;28;20097;-85
2022/06/23 08:31:28;;;;;;;0.10;0.10;;;;;;;;;;5025306;28;20026;-87
2022/06/23 08:33:54;;;;;;;0.10;0.10;;;;;;;;;;5021685;28;20034;-89
2022/06/23 08:36:22;;;;;;;0.10;0.10;;;;;;;;;;5021657;28;20030;-87
2022/06/23 08:39:00;;;;;;;0.00;0.00;;;;;;;;;;5019057;28;20018;-86
2022/06/23 08:41:50;;;;;;;0.10;0.10;;;;;;;;;;5032924;28;20022;-86
2022/06/23 08:44:35;;;;;;;0.03;0.03;;;;;;;;;;5015730;28;20033;-89
2022/06/23 08:47:05;;;;;;;0.10;0.10;;;;;;;;;;5012168;28;20116;-87
2022/06/23 08:49:34;;;;;;;0.10;0.10;;;;;;;;;;5017794;28;20443;-87
2022/06/23 08:52:17;;;;;;;0.10;0.10;;;;;;;;;;5033086;28;20104;-84
2022/06/23 08:55:02;;;;;;;0.10;0.10;;;;;;;;;;4995124;28;20062;-84
2022/06/23 08:57:31;;;;;;;0.10;0.10;;;;;;;;;;5006671;28;20574;-85
2022/06/23 09:00:00;;;;;;;0.10;0.10;;;;;;;;;;5029582;28;20490;-84
2022/06/23 09:02:29;;;;;;;0.10;0.10;;;;;;;;;;5015832;28;20104;-86
2022/06/23 09:05:12;;;;;;;0.03;0.03;;;;;;;;;;5029198;28;20030;-86
2022/06/23 09:07:56;;;;;;;0.00;0.00;;;;;;;;;;5017838;28;20034;-83
2022/06/23 09:10:46;;;;;;;0.00;0.00;;;;;;;;;;5011762;28;20044;-84
2022/06/23 09:13:25;;;;;;;0.10;0.10;;;;;;;;;;5016540;28;20030;-86
2022/06/23 09:16:00;;;;;;;0.10;0.10;;;;;;;;;;5014792;28;20022;-84
2022/06/23 09:18:32;;;;;;;0.10;0.10;;;;;;;;;;5023900;28;20056;-88
2022/06/23 09:21:27;;;;;;;0.10;0.10;;;;;;;;;;5015159;28;20117;-86
2022/06/23 09:23:57;;;;;;;0.10;0.10;;;;;;;;;;4961553;28;20118;-88
2022/06/23 09:26:26;;;;;;;0.10;0.10;;;;;;;;;;5029924;28;20070;-89
2022/06/23 09:28:54;;;;;;;0.10;0.10;;;;;;;;;;5014409;28;20022;-86
2022/06/23 09:31:20;;;;;;;0.10;0.10;;;;;;;;;;5014753;28;20034;-88
2022/06/23 09:33:55;;;;;;;0.10;0.10;;;;;;;;;;5028902;28;20022;-87
2022/06/23 09:36:40;;;;;;;0.10;0.10;;;;;;;;;;5014856;28;20026;-89
2022/06/23 09:39:18;;;;;;;0.10;0.10;;;;;;;;;;5014441;28;20026;-88
2022/06/23 09:41:53;;;;;;;0.00;0.00;;;;;;;;;;5028631;28;20033;-87
2022/06/23 09:44:30;;;;;;;0.10;0.10;;;;;;;;;;5014065;28;20073;-85
2022/06/23 09:46:56;;;;;;;0.10;0.10;;;;;;;;;;5013277;28;20034;-87
2022/06/23 09:49:28;;;;;;;0.10;0.10;;;;;;;;;;5029450;28;20034;-86
2022/06/23 09:52:07;;;;;;;0.10;0.10;;;;;;;;;;5031182;28;20049;-88
2022/06/23 09:54:39;;;;;;;0.10;0.10;;;;;;;;;;5013611;28;20375;-84
2022/06/23 09:57:05;;;;;;;0.10;0.10;;;;;;;;;;5023408;28;20049;-85
2022/06/23 09:59:31;;;;;;;0.10;0.10;;;;;;;;;;5031826;28;20053;-82
2022/06/23 10:02:02;;;;;;;0.10;0.10;;;;;;;;;;5022661;28;20026;-82
2022/06/23 10:04:40;;;;;;;0.10;0.10;;;;;;;;;;5033812;28;20068;-83
2022/06/23 10:07:29;;;;;;;0.10;0.10;;;;;;;;;;5030709;28;20033;-82
2022/06/23 10:09:56;;;;;;;0.10;0.10;;;;;;;;;;4957554;28;20061;-86
2022/06/23 10:12:35;;;;;;;0.10;0.10;;;;;;;;;;4993799;28;20041;-81
2022/06/23 10:15:19;;;;;;;0.10;0.10;;;;;;;;;;5009711;28;20053;-83
2022/06/23 10:17:45;;;;;;;0.10;0.10;;;;;;;;;;5023477;28;20026;-82
2022/06/23 10:20:23;;;;;;;0.10;0.10;;;;;;;;;;5026389;28;20038;-82
2022/06/23 10:22:58;;;;;;;0.10;0.10;;;;;;;;;;5006000;28;20034;-81
2022/06/23 10:25:30;;;;;;;0.10;0.10;;;;;;;;;;5012690;28;20034;-81
2022/06/23 10:28:15;;;;;;;0.10;0.10;;;;;;;;;;5012443;28;20026;-80
2022/06/23 10:31:13;;;;;;;0.10;0.10;;;;;;;;;;5012473;28;20486;-80
2022/06/23 10:33:46;;;;;;;0.10;0.10;;;;;;;;;;4979899;28;20034;-80
2022/06/23 10:36:18;;;;;;;0.10;0.10;;;;;;;;;;5015795;28;20039;-80
2022/06/23 10:38:44;;;;;;;0.10;0.10;;;;;;;;;;5031842;28;20026;-85
2022/06/23 10:41:17;;;;;;;0.10;0.10;;;;;;;;;;5032815;28;20108;-83
2022/06/23 10:43:58;;;;;;;0.10;0.10;;;;;;;;;;5032210;28;20029;-83
2022/06/23 10:46:24;;;;;;;0.10;0.10;;;;;;;;;;5031982;28;20073;-81
2022/06/23 10:49:05;;;;;;;0.10;0.10;;;;;;;;;;5032161;28;20025;-79
2022/06/23 10:51:40;;;;;;;0.00;0.00;;;;;;;;;;5032744;28;20030;-83
2022/06/23 10:54:36;;;;;;;0.10;0.10;;;;;;;;;;5032413;28;20021;-80
2022/06/23 10:57:20;;;;;;;0.10;0.10;;;;;;;;;;5016679;28;20033;-80
2022/06/23 11:00:01;;;;;;;0.10;0.10;;;;;;;;;;5032132;28;20385;-81
2022/06/23 11:02:46;;;;;;;0.10;0.10;;;;;;;;;;5032291;28;20030;-80
2022/06/23 11:05:12;;;;;;;0.10;0.10;;;;;;;;;;5031995;28;20048;-83
2022/06/23 11:08:07;;;;;;;0.10;0.10;;;;;;;;;;5031741;28;20405;-87
2022/06/23 11:10:49;;;;;;;0.08;0.08;;;;;;;;;;4962343;28;20039;-86
2022/06/23 11:13:34;;;;;;;0.10;0.10;;;;;;;;;;5025018;28;20497;-85
2022/06/23 11:16:00;;;;;;;0.10;0.10;;;;;;;;;;4992999;28;20030;-85
2022/06/23 11:18:35;;;;;;;0.10;0.10;;;;;;;;;;4992548;28;20022;-85
2022/06/23 11:21:01;;;;;;;;;;;;;;;;;;4993291;28;20084;-85
2022/06/23 11:23:28;;;;;;;;;;;;;;;;;;4976165;28;19906;-88
2022/06/23 11:25:54;;;;;;;0.10;0.10;;;;;;;;;;4992417;28;19913;-83
2022/06/23 11:28:41;;;;;;;0.10;0.10;;;;;;;;;;4992425;28;20077;-82
2022/06/23 11:31:16;;;;;;;0.10;0.10;;;;;;;;;;4992623;28;20034;-83
2022/06/23 11:33:59;;;;;;;0.10;0.10;;;;;;;;;;4992817;28;20030;-87
2022/06/23 11:36:25;;;;;;;0.10;0.10;;;;;;;;;;4992538;28;20045;-81
2022/06/23 11:39:03;;;;;;;0.10;0.10;;;;;;;;;;4991899;28;20068;-81
2022/06/23 11:41:32;;;;;;;0.10;0.10;;;;;;;;;;4974795;28;20033;-82
2022/06/23 11:44:04;;;;;;;0.10;0.10;;;;;;;;;;4992362;28;20497;-83
2022/06/23 11:46:35;;;;;;;0.00;0.00;;;;;;;;;;4992379;28;20088;-82
2022/06/23 11:49:08;;;;;;;0.10;0.10;;;;;;;;;;4993303;28;20486;-81
2022/06/23 11:51:47;;;;;;;0.10;0.10;;;;;;;;;;4992335;28;20029;-86
2022/06/23 11:54:13;;;;;;;0.10;0.10;;;;;;;;;;4992356;28;20050;-85
2022/06/23 11:56:39;;;;;;;0.10;0.10;;;;;;;;;;4991783;28;20049;-86
2022/06/23 11:59:05;;;;;;;0.10;0.10;;;;;;;;;;4992383;28;20450;-83
2022/06/23 12:01:31;;;;;;;0.10;0.10;;;;;;;;;;4974743;28;20026;-84
2022/06/23 12:04:06;;;;;;;0.10;0.10;;;;;;;;;;4992092;28;20039;-86
2022/06/23 12:06:41;;;;;;;0.10;0.10;;;;;;;;;;4991967;28;20062;-80
2022/06/23 12:09:07;;;;;;;0.00;0.00;;;;;;;;;;4991510;28;20026;-84
2022/06/23 12:11:34;;;;;;;0.10;0.10;;;;;;;;;;4991818;28;20492;-83
2022/06/23 12:14:02;;;;;;;0.10;0.10;;;;;;;;;;4992183;28;20026;-83
2022/06/23 12:16:28;;;;;;;0.10;0.10;;;;;;;;;;4992097;28;20058;-81
2022/06/23 12:18:54;;;;;;;0.10;0.10;;;;;;;;;;4991738;28;20023;-84
2022/06/23 12:21:26;;;;;;;0.15;0.15;;;;;;;;;;4991662;28;20395;-83
2022/06/23 12:23:58;;;;;;;0.10;0.10;;;;;;;;;;4991544;28;20576;-81
2022/06/23 12:26:24;;;;;;;0.00;0.00;;;;;;;;;;4991695;28;20089;-82
2022/06/23 12:29:19;;;;;;;0.10;0.10;;;;;;;;;;4991378;28;20434;-80
2022/06/23 12:31:57;;;;;;;0.10;0.10;;;;;;;;;;4977800;28;20500;-80
2022/06/23 12:34:40;;;;;;;0.10;0.10;;;;;;;;;;4991624;28;20034;-80
2022/06/23 12:37:06;;;;;;;0.10;0.10;;;;;;;;;;5010145;28;20030;-81
2022/06/23 12:39:50;;;;;;;0.10;0.10;;;;;;;;;;5011557;28;20018;-83
2022/06/23 12:42:28;;;;;;;0.10;0.10;;;;;;;;;;5011128;28;20101;-81
2022/06/23 12:45:01;;;;;;;0.10;0.10;;;;;;;;;;5010766;28;20474;-83
2022/06/23 12:47:53;;;;;;;0.10;0.10;;;;;;;;;;5011401;28;20022;-82
2022/06/23 12:50:33;;;;;;;0.10;0.10;;;;;;;;;;4993198;28;20030;-80
2022/06/23 12:53:14;;;;;;;0.10;0.10;;;;;;;;;;5011376;28;20084;-82
2022/06/23 12:55:46;;;;;;;0.10;0.10;;;;;;;;;;5010635;28;20030;-82
2022/06/23 12:58:15;;;;;;;0.10;0.10;;;;;;;;;;5011006;28;20065;-82
2022/06/23 13:00:47;;;;;;;0.08;0.08;;;;;;;;;;5010774;28;20032;-82
2022/06/23 13:03:32;;;;;;;0.10;0.10;;;;;;;;;;5010692;28;20385;-81
2022/06/23 13:06:02;;;;;;;0.10;0.10;;;;;;;;;;5011129;28;20030;-80
2022/06/23 13:08:49;;;;;;;0.10;0.10;;;;;;;;;;5011119;28;20026;-80
2022/06/23 13:11:20;;;;;;;0.10;0.10;;;;;;;;;;5010835;28;20036;-80
2022/06/23 13:13:51;;;;;;;0.10;0.10;;;;;;;;;;5010617;28;20030;-80
2022/06/23 13:16:26;;;;;;;0.10;0.10;;;;;;;;;;5010701;28;20034;-80
2022/06/23 13:18:59;;;;;;;0.10;0.10;;;;;;;;;;5010793;28;20389;-81
2022/06/23 13:21:30;;;;;;;0.10;0.10;;;;;;;;;;5012870;28;20061;-82
2022/06/23 13:24:01;;;;;;;0.10;0.10;;;;;;;;;;5014023;28;20165;-79
2022/06/23 17:36:30;;;;;;;;;;;;;;;;;;5116353;27;20391;-87
2022/06/23 17:44:38;;;;;;;0.10;0.10;;;;;;;;;;5116390;28;20089;-89
2022/06/23 17:47:16;;;;;;;0.10;0.10;;;;;;;;;;5115338;28;20058;-89
2022/06/23 17:49:43;;;;;;;0.10;0.10;;;;;;;;;;5133204;28;20081;-88
2022/06/23 17:52:20;;;;;;;0.10;0.10;;;;;;;;;;5130250;28;20421;-87
2022/06/23 17:54:55;;;;;;;0.10;0.10;;;;;;;;;;5129040;28;20503;-88
2022/06/23 17:57:36;;;;;;;0.10;0.10;;;;;;;;;;5129849;28;20417;-87
2022/06/23 18:00:05;;;;;;;0.10;0.10;;;;;;;;;;5113352;28;20305;-87
2022/06/23 18:02:32;;;;;;;0.10;0.10;;;;;;;;;;5127904;28;20012;-83
2022/06/23 18:05:10;;;;;;;0.10;0.10;;;;;;;;;;5110896;28;20055;-82
2022/06/23 18:08:00;;;;;;;0.10;0.10;;;;;;;;;;5126814;28;20057;-85
2022/06/23 18:10:30;;;;;;;0.10;0.10;;;;;;;;;;5104419;28;20028;-83
2022/06/23 18:13:00;;;;;;;0.10;0.10;;;;;;;;;;5109846;28;20031;-82
2022/06/23 18:15:26;;;;;;;0.10;0.10;;;;;;;;;;5127010;28;20042;-84
2022/06/23 18:17:53;;;;;;;0.10;0.10;;;;;;;;;;5129475;28;20032;-83
2022/06/23 18:20:23;;;;;;;0.10;0.10;;;;;;;;;;5131124;28;20032;-84
2022/06/23 18:22:55;;;;;;;0.10;0.10;;;;;;;;;;5109406;28;20063;-82
2022/06/23 18:25:29;;;;;;;0.10;0.10;;;;;;;;;;5108819;28;20035;-79
2022/06/23 18:28:04;;;;;;;0.10;0.10;;;;;;;;;;5108187;28;20445;-81
2022/06/23 18:30:30;;;;;;;;;;;;;;;;;;5108948;28;20032;-85
2022/06/23 18:33:15;;;;;;;1.95;1.85;;;;;;;;;;5108013;28;19949;-82
2022/06/23 18:35:44;;;;;;;0.10;0.10;;;;;;;;;;5108368;28;20078;-83
2022/06/23 18:38:12;;;;;;;0.10;0.10;;;;;;;;;;5108281;28;20043;-85
2022/06/23 18:40:46;;;;;;;0.10;0.10;;;;;;;;;;5107990;28;20028;-82
2022/06/23 18:43:20;;;;;;;0.10;0.10;;;;;;;;;;5108144;28;20522;-86
2022/06/23 18:45:51;;;;;;;0.00;0.00;;;;;;;;;;5105867;28;20027;-85
2022/06/23 18:48:21;;;;;;;0.10;0.10;;;;;;;;;;5110161;28;20418;-85
2022/06/23 18:50:50;;;;;;;0.10;0.10;;;;;;;;;;5094406;28;20020;-85
2022/06/23 18:53:42;;;;;;;0.00;0.00;;;;;;;;;;5094605;28;20035;-85
2022/06/23 18:56:10;;;;;;;0.10;0.10;;;;;;;;;;5093543;28;20044;-84
2022/06/23 18:58:36;;;;;;;0.10;0.10;;;;;;;;;;5094028;28;20095;-83
2022/06/23 19:01:08;;;;;;;0.10;0.10;;;;;;;;;;5094331;28;20467;-81
2022/06/23 19:03:42;;;;;;;0.10;0.10;;;;;;;;;;5109723;28;20048;-84
2022/06/23 19:06:14;;;;;;;0.00;0.00;;;;;;;;;;5094517;28;20040;-86
2022/06/23 19:08:40;;;;;;;0.10;0.10;;;;;;;;;;5094099;28;20042;-87
2022/06/23 19:11:13;;;;;;;0.10;0.10;;;;;;;;;;5094488;28;20032;-86
2022/06/23 19:13:55;;;;;;;0.38;0.38;;;;;;;;;;5094401;28;20056;-89
2022/06/23 19:16:39;;;;;;;0.10;0.10;;;;;;;;;;5094719;28;20047;-89
2022/06/23 19:19:05;;;;;;;0.10;0.10;;;;;;;;;;5094821;28;20054;-89
2022/06/23 19:21:49;;;;;;;0.05;0.05;;;;;;;;;;5094851;28;20020;-90
2022/06/23 19:24:18;;;;;;;0.10;0.10;;;;;;;;;;5094557;28;20361;-88
2022/06/23 19:26:53;;;;;;;0.10;0.10;;;;;;;;;;5093767;28;20098;-84
2022/06/23 19:29:19;;;;;;;0.10;0.10;;;;;;;;;;5109282;28;20032;-83
2022/06/23 19:31:58;;;;;;;0.10;0.10;;;;;;;;;;5093518;28;20486;-84
2022/06/23 19:34:27;;;;;;;0.10;0.10;;;;;;;;;;5093729;28;20032;-81
2022/06/23 19:37:12;;;;;;;0.10;0.10;;;;;;;;;;5108924;28;20122;-85
2022/06/23 19:39:57;;;;;;;0.10;0.10;;;;;;;;;;5093445;28;20032;-81
2022/06/23 19:42:25;;;;;;;0.10;0.10;;;;;;;;;;5093341;28;20016;-81
2022/06/23 19:45:00;;;;;;;0.10;0.10;;;;;;;;;;5093236;28;20078;-82
2022/06/23 19:47:33;;;;;;;0.10;0.10;;;;;;;;;;5093435;28;20028;-83